Time;durP1;ratioP1;P1;durP2;ratioP2;P2;SDS_P1;SDS_P2;PMS_P1;PMS_P2;Temp;Humidity;BMP_temperature;BMP_pressure;BME280_temperature;BME280_humidity;BME280_pressure;Samples;Min_cycle;Max_cycle;Signal;HPM_P1;HPM_P2
2022/08/15 00:00:13;;;;;;;3.50;3.20;;;28.90;30.50;;;;;;4928493;29;20459;-71
2022/08/15 00:02:55;;;;;;;4.10;3.90;;;28.90;30.50;;;;;;4961487;28;20889;-71
2022/08/15 00:05:32;;;;;;;3.67;3.47;;;28.90;30.40;;;;;;4934423;29;20464;-71
2022/08/15 00:08:06;;;;;;;4.10;3.80;;;28.90;30.50;;;;;;4960886;28;20573;-71
2022/08/15 00:10:57;;;;;;;4.03;3.77;;;28.90;30.40;;;;;;4959564;28;20871;-71
2022/08/15 00:13:32;;;;;;;4.13;3.83;;;28.90;30.50;;;;;;4959988;28;20443;-71
2022/08/15 00:16:10;;;;;;;4.60;4.00;;;28.90;30.40;;;;;;4953597;28;20494;-71
2022/08/15 00:18:48;;;;;;;5.17;3.80;;;28.90;30.50;;;;;;4935481;29;20447;-71
2022/08/15 00:21:20;;;;;;;4.07;3.77;;;28.90;30.80;;;;;;4936653;28;21027;-71
2022/08/15 00:23:51;;;;;;;3.87;3.53;;;28.90;30.70;;;;;;4930640;29;20444;-71
2022/08/15 00:26:20;;;;;;;4.43;4.03;;;28.90;30.70;;;;;;4934460;29;20479;-71
2022/08/15 00:28:58;;;;;;;4.30;3.90;;;28.90;30.80;;;;;;4933026;29;20443;-71
2022/08/15 00:31:31;;;;;;;3.97;3.67;;;28.90;30.80;;;;;;4928876;29;20461;-71
2022/08/15 00:34:10;;;;;;;3.80;3.50;;;28.90;30.80;;;;;;4933825;29;20453;-71
2022/08/15 00:36:59;;;;;;;3.90;3.50;;;28.90;30.90;;;;;;4928916;29;20469;-71
2022/08/15 00:39:29;;;;;;;4.23;3.93;;;28.90;31.00;;;;;;4961828;28;20455;-71
2022/08/15 00:42:04;;;;;;;4.03;3.83;;;28.90;31.00;;;;;;4927912;29;21010;-71
2022/08/15 00:44:40;;;;;;;4.10;3.80;;;28.90;31.10;;;;;;4931030;29;21000;-71
2022/08/15 00:47:30;;;;;;;3.77;3.30;;;28.90;31.10;;;;;;4923068;29;20468;-71
2022/08/15 00:50:08;;;;;;;3.40;3.10;;;28.90;31.10;;;;;;4929037;29;20444;-71
2022/08/15 00:52:59;;;;;;;4.33;3.70;;;28.90;31.00;;;;;;4934054;28;20487;-71
2022/08/15 00:55:30;;;;;;;4.20;3.17;;;28.90;31.20;;;;;;4929301;29;20441;-71
2022/08/15 00:58:01;;;;;;;3.73;3.43;;;28.90;31.20;;;;;;4959402;28;20489;-71
2022/08/15 01:00:37;;;;;;;3.83;3.60;;;28.90;31.10;;;;;;4942953;29;20448;-71
2022/08/15 01:03:20;;;;;;;4.00;3.70;;;28.90;31.30;;;;;;4952490;28;20468;-71
2022/08/15 01:05:53;;;;;;;3.50;3.20;;;28.80;31.30;;;;;;4961917;28;20444;-71
2022/08/15 01:08:26;;;;;;;3.77;3.47;;;28.90;31.30;;;;;;4968892;23;20555;-72
2022/08/15 01:11:12;;;;;;;4.50;3.20;;;28.80;31.30;;;;;;5021358;28;20984;-72
2022/08/15 01:13:42;;;;;;;4.00;3.30;;;28.80;32.70;;;;;;4989958;28;20437;-72
2022/08/15 01:16:32;;;;;;;6.27;4.20;;;28.80;31.40;;;;;;4985200;28;20458;-72
2022/08/15 01:19:08;;;;;;;3.30;3.10;;;28.80;31.50;;;;;;4985991;28;20548;-71
2022/08/15 01:21:56;;;;;;;3.07;2.87;;;28.80;31.50;;;;;;4987465;28;20948;-72
2022/08/15 01:24:55;;;;;;;3.67;3.37;;;28.80;31.60;;;;;;4990538;28;20465;-72
2022/08/15 01:27:48;;;;;;;3.23;3.00;;;28.80;31.60;;;;;;4985975;28;20477;-72
2022/08/15 01:30:26;;;;;;;3.53;3.23;;;28.80;31.60;;;;;;4985552;28;20504;-72
2022/08/15 01:33:15;;;;;;;3.50;3.20;;;28.80;31.60;;;;;;4981974;28;20449;-71
2022/08/15 01:35:47;;;;;;;3.40;3.10;;;28.70;31.60;;;;;;4981087;28;20445;-72
2022/08/15 01:38:25;;;;;;;4.43;3.63;;;28.70;31.60;;;;;;4989718;28;20453;-72
2022/08/15 01:41:23;;;;;;;3.60;3.30;;;28.70;31.80;;;;;;4982294;28;20461;-72
2022/08/15 01:44:12;;;;;;;3.63;3.33;;;28.70;31.80;;;;;;4988092;28;20516;-72
2022/08/15 01:47:08;;;;;;;3.60;3.30;;;28.70;31.80;;;;;;4988222;28;20478;-71
2022/08/15 01:49:53;;;;;;;3.53;3.23;;;28.70;31.80;;;;;;4989070;28;20999;-72
2022/08/15 01:52:50;;;;;;;4.20;3.40;;;28.70;31.80;;;;;;4986257;28;20752;-71
2022/08/15 01:55:48;;;;;;;3.23;2.90;;;28.70;32.00;;;;;;4990007;28;20425;-72
2022/08/15 01:58:25;;;;;;;3.57;3.23;;;28.70;31.90;;;;;;4988338;28;20457;-72
2022/08/15 02:01:02;;;;;;;4.20;3.00;;;28.70;32.10;;;;;;4989900;28;20838;-72
2022/08/15 02:03:35;;;;;;;3.00;2.80;;;28.70;32.00;;;;;;4989432;28;20441;-72
2022/08/15 02:06:22;;;;;;;3.63;3.43;;;28.70;32.10;;;;;;4998397;28;20524;-72
2022/08/15 02:09:07;;;;;;;2.93;2.63;;;28.70;32.00;;;;;;4989043;28;20448;-72
2022/08/15 02:12:00;;;;;;;3.53;3.20;;;28.70;32.00;;;;;;4986390;28;20497;-72
2022/08/15 02:14:50;;;;;;;6.07;3.03;;;28.70;32.10;;;;;;4986006;28;20446;-72
2022/08/15 02:17:18;;;;;;;2.90;2.70;;;28.70;32.20;;;;;;4988671;28;20493;-72
2022/08/15 02:19:50;;;;;;;3.37;3.17;;;28.70;32.10;;;;;;4987552;28;20439;-72
2022/08/15 02:22:24;;;;;;;3.43;2.93;;;28.70;32.10;;;;;;4998847;28;20985;-72
2022/08/15 02:24:56;;;;;;;3.17;2.90;;;28.70;32.20;;;;;;4988633;28;20460;-72
2022/08/15 02:27:28;;;;;;;3.20;3.00;;;28.70;32.10;;;;;;4988697;28;20478;-72
2022/08/15 02:30:00;;;;;;;2.80;2.57;;;28.70;32.00;;;;;;5001811;28;20520;-72
2022/08/15 02:32:29;;;;;;;2.77;2.57;;;28.70;32.10;;;;;;4985907;28;20875;-72
2022/08/15 02:35:00;;;;;;;2.90;2.70;;;28.70;32.20;;;;;;4987191;28;20454;-72
2022/08/15 02:37:32;;;;;;;3.20;3.00;;;28.70;32.20;;;;;;4987967;28;20601;-72
2022/08/15 02:40:11;;;;;;;3.30;3.00;;;28.70;32.30;;;;;;5005346;28;20883;-72
2022/08/15 02:43:01;;;;;;;2.83;2.60;;;28.70;32.30;;;;;;4988396;28;21131;-72
2022/08/15 02:45:37;;;;;;;5.33;3.43;;;28.70;32.20;;;;;;4988816;28;20442;-73
2022/08/15 02:48:26;;;;;;;3.60;3.10;;;28.70;32.30;;;;;;4972410;28;20474;-72
2022/08/15 02:51:01;;;;;;;3.13;2.90;;;28.70;32.40;;;;;;4985789;28;20779;-72
2022/08/15 02:53:30;;;;;;;2.80;2.60;;;28.70;32.40;;;;;;4986700;28;20438;-72
2022/08/15 02:56:11;;;;;;;3.17;2.97;;;28.70;32.30;;;;;;4987708;28;20548;-72
2022/08/15 02:58:40;;;;;;;2.93;2.73;;;28.70;32.40;;;;;;4991517;28;20449;-72
2022/08/15 03:01:11;;;;;;;4.33;2.63;;;28.70;32.40;;;;;;4979915;28;20477;-72
2022/08/15 03:03:49;;;;;;;3.17;2.87;;;28.70;32.40;;;;;;4986160;28;20490;-72
2022/08/15 03:06:22;;;;;;;3.10;2.80;;;28.70;32.50;;;;;;4987328;28;20438;-73
2022/08/15 03:09:07;;;;;;;3.10;2.80;;;28.70;32.40;;;;;;4987146;28;20477;-72
2022/08/15 03:11:45;;;;;;;2.93;2.73;;;28.70;32.50;;;;;;4986929;28;20477;-72
2022/08/15 03:14:35;;;;;;;3.10;2.80;;;28.70;32.60;;;;;;4979228;28;20890;-72
2022/08/15 03:17:09;;;;;;;3.10;2.90;;;28.70;32.60;;;;;;4987350;28;20462;-72
2022/08/15 03:19:47;;;;;;;2.80;2.60;;;28.70;32.70;;;;;;4986907;28;20948;-72
2022/08/15 03:22:21;;;;;;;4.40;2.93;;;28.70;32.70;;;;;;4986133;28;20556;-72
2022/08/15 03:25:10;;;;;;;2.87;2.50;;;28.70;32.70;;;;;;4999329;28;20534;-72
2022/08/15 03:27:41;;;;;;;3.40;2.90;;;28.70;32.70;;;;;;4984550;28;20917;-72
2022/08/15 03:30:14;;;;;;;2.97;2.70;;;28.60;32.80;;;;;;4983691;28;20448;-72
2022/08/15 03:32:53;;;;;;;3.77;3.00;;;28.70;32.90;;;;;;4986273;28;20505;-72
2022/08/15 03:35:25;;;;;;;3.90;3.17;;;28.70;32.90;;;;;;4981508;28;20445;-72
2022/08/15 03:38:01;;;;;;;2.83;2.63;;;28.70;32.90;;;;;;4986446;28;20496;-72
2022/08/15 03:40:38;;;;;;;2.90;2.40;;;28.70;32.90;;;;;;4988301;28;20512;-72
2022/08/15 03:43:15;;;;;;;3.40;3.10;;;28.70;33.00;;;;;;4991103;28;20843;-72
2022/08/15 03:45:48;;;;;;;2.60;2.40;;;28.60;32.90;;;;;;4987408;28;20438;-72
2022/08/15 03:48:23;;;;;;;4.47;2.90;;;28.60;32.90;;;;;;4987464;28;20483;-72
2022/08/15 03:50:58;;;;;;;3.40;3.10;;;28.60;33.00;;;;;;4986537;28;20445;-72
2022/08/15 03:53:33;;;;;;;4.50;3.40;;;28.60;33.00;;;;;;4986523;28;20449;-72
2022/08/15 03:56:04;;;;;;;4.53;2.63;;;28.60;33.10;;;;;;4986502;28;20952;-72
2022/08/15 03:58:38;;;;;;;3.97;3.50;;;28.60;33.20;;;;;;4985545;28;20442;-72
2022/08/15 04:01:13;;;;;;;2.57;2.37;;;28.60;33.20;;;;;;4986596;28;20548;-72
2022/08/15 04:03:46;;;;;;;3.33;2.50;;;28.60;33.20;;;;;;4986433;28;20442;-72
2022/08/15 04:06:19;;;;;;;2.97;2.77;;;28.60;33.20;;;;;;4985199;28;20454;-71
2022/08/15 04:08:57;;;;;;;3.40;3.20;;;28.60;33.20;;;;;;4986787;28;20477;-72
2022/08/15 04:11:48;;;;;;;2.63;2.33;;;28.60;33.30;;;;;;4979290;28;20466;-72
2022/08/15 04:14:30;;;;;;;3.00;2.80;;;28.60;33.30;;;;;;4986453;28;20449;-72
2022/08/15 04:17:15;;;;;;;3.23;3.03;;;28.60;33.40;;;;;;4979208;28;20476;-72
2022/08/15 04:19:52;;;;;;;4.40;4.10;;;28.60;33.30;;;;;;4984557;28;20449;-72
2022/08/15 04:22:34;;;;;;;3.40;2.77;;;28.60;33.30;;;;;;4985815;28;20557;-72
2022/08/15 04:25:25;;;;;;;3.07;2.87;;;28.60;33.40;;;;;;4986963;28;20929;-72
2022/08/15 04:28:06;;;;;;;3.40;2.90;;;28.60;33.50;;;;;;4986254;28;21011;-72
2022/08/15 04:30:56;;;;;;;3.23;2.83;;;28.60;33.50;;;;;;4984777;28;20448;-72
2022/08/15 04:33:29;;;;;;;3.23;3.03;;;28.60;33.50;;;;;;4986368;28;20469;-72
2022/08/15 04:36:21;;;;;;;3.07;2.87;;;28.60;33.50;;;;;;4980922;28;20868;-72
2022/08/15 04:39:01;;;;;;;2.97;2.77;;;28.60;33.50;;;;;;4985957;28;20922;-72
2022/08/15 04:41:35;;;;;;;3.23;3.00;;;28.60;33.50;;;;;;4985757;28;20457;-72
2022/08/15 04:44:10;;;;;;;2.90;2.70;;;28.60;33.60;;;;;;4983110;28;20465;-72
2022/08/15 04:46:52;;;;;;;3.40;3.10;;;28.60;33.70;;;;;;4986064;28;20473;-72
2022/08/15 04:49:21;;;;;;;3.07;2.60;;;28.50;33.50;;;;;;4980801;28;20866;-72
2022/08/15 04:51:52;;;;;;;3.30;2.90;;;28.50;33.60;;;;;;4984003;28;20565;-72
2022/08/15 04:54:23;;;;;;;2.70;2.27;;;28.50;33.60;;;;;;4986297;28;20532;-72
2022/08/15 04:57:09;;;;;;;2.70;2.50;;;28.50;33.70;;;;;;4984366;28;21018;-72
2022/08/15 04:59:49;;;;;;;3.30;3.00;;;28.50;33.70;;;;;;4983896;28;20960;-72
2022/08/15 05:02:40;;;;;;;2.63;2.43;;;28.50;33.70;;;;;;4985683;28;20576;-72
2022/08/15 05:05:24;;;;;;;3.00;2.70;;;28.50;33.80;;;;;;4985915;28;20728;-72
2022/08/15 05:08:07;;;;;;;2.93;2.70;;;28.50;33.80;;;;;;4985089;28;20466;-72
2022/08/15 05:10:45;;;;;;;3.03;2.83;;;28.50;33.90;;;;;;4986255;28;20537;-72
2022/08/15 05:13:17;;;;;;;3.90;3.00;;;28.50;33.90;;;;;;4977028;28;20565;-72
2022/08/15 05:15:48;;;;;;;2.90;2.70;;;28.50;33.90;;;;;;4986686;28;20446;-72
2022/08/15 05:18:26;;;;;;;3.17;2.90;;;28.50;33.90;;;;;;4986484;28;20467;-72
2022/08/15 05:20:57;;;;;;;2.93;2.73;;;28.50;34.00;;;;;;4984443;28;20433;-72
2022/08/15 05:23:31;;;;;;;2.70;2.50;;;28.50;34.00;;;;;;4979741;28;20968;-72
2022/08/15 05:26:19;;;;;;;2.83;2.63;;;28.50;34.00;;;;;;4986452;28;20457;-72
2022/08/15 05:29:07;;;;;;;4.80;3.40;;;28.50;34.10;;;;;;4983315;28;20550;-72
2022/08/15 05:31:36;;;;;;;3.33;2.63;;;28.50;34.20;;;;;;4987391;28;20458;-72
2022/08/15 05:34:10;;;;;;;2.93;2.63;;;28.50;34.30;;;;;;4981596;28;20456;-72
2022/08/15 05:36:50;;;;;;;2.33;2.20;;;28.40;34.40;;;;;;4986103;28;20441;-72
2022/08/15 05:39:25;;;;;;;2.97;2.67;;;28.40;34.40;;;;;;4987063;28;20472;-72
2022/08/15 05:42:10;;;;;;;3.50;3.20;;;28.40;34.60;;;;;;4985413;28;20526;-70
2022/08/15 05:44:50;;;;;;;3.60;3.30;;;28.40;34.50;;;;;;4984831;28;20445;-72
2022/08/15 05:47:33;;;;;;;3.10;2.80;;;28.40;34.60;;;;;;4979760;28;21011;-72
2022/08/15 05:50:09;;;;;;;3.33;3.03;;;28.30;34.50;;;;;;4978677;28;20478;-71
2022/08/15 05:52:48;;;;;;;5.13;2.60;;;28.30;34.50;;;;;;4989151;28;20537;-73
2022/08/15 05:55:25;;;;;;;3.37;3.07;;;28.30;34.70;;;;;;4975491;28;20524;-72
2022/08/15 05:58:13;;;;;;;3.37;2.70;;;28.30;34.60;;;;;;4989210;28;20564;-71
2022/08/15 06:01:09;;;;;;;3.47;2.90;;;28.30;34.80;;;;;;4989714;28;20453;-71
2022/08/15 06:03:50;;;;;;;3.13;2.70;;;28.20;34.80;;;;;;4988310;28;20934;-72
2022/08/15 06:06:23;;;;;;;3.40;3.20;;;28.20;34.70;;;;;;4999155;28;20557;-72
2022/08/15 06:09:00;;;;;;;3.20;2.90;;;28.20;34.70;;;;;;4989006;28;20901;-72
2022/08/15 06:11:41;;;;;;;2.73;2.27;;;28.20;34.70;;;;;;4985034;28;20461;-71
2022/08/15 06:14:26;;;;;;;3.87;2.83;;;28.20;34.70;;;;;;4981893;28;20760;-71
2022/08/15 06:17:12;;;;;;;3.80;3.00;;;28.20;34.80;;;;;;4987660;28;20508;-70
2022/08/15 06:19:47;;;;;;;3.03;2.77;;;28.20;34.80;;;;;;4986687;28;20458;-71
2022/08/15 06:22:36;;;;;;;3.90;3.20;;;28.10;34.80;;;;;;5000024;28;21165;-71
2022/08/15 06:25:25;;;;;;;3.60;2.90;;;28.10;35.00;;;;;;4983388;28;20472;-71
2022/08/15 06:28:36;;;;;;;5.60;3.43;;;28.10;35.10;;;;;;5003391;28;20481;-70
2022/08/15 06:31:31;;;;;;;3.23;2.87;;;28.10;35.30;;;;;;4991021;28;20516;-72
2022/08/15 06:34:18;;;;;;;5.10;3.30;;;28.10;35.20;;;;;;4987157;28;20448;-71
2022/08/15 06:37:14;;;;;;;3.97;3.07;;;28.10;35.20;;;;;;4989195;28;20466;-70
2022/08/15 06:39:54;;;;;;;3.23;2.50;;;28.10;35.20;;;;;;4989645;28;20438;-72
2022/08/15 06:42:33;;;;;;;3.97;3.43;;;28.10;35.40;;;;;;4987375;28;20694;-72
2022/08/15 06:45:14;;;;;;;3.23;2.90;;;28.10;35.40;;;;;;4989227;28;20453;-72
2022/08/15 06:47:44;;;;;;;5.40;3.00;;;28.00;35.60;;;;;;4981151;28;20492;-72
2022/08/15 06:50:31;;;;;;;3.77;3.47;;;28.00;35.80;;;;;;4985850;28;20476;-72
2022/08/15 06:53:07;;;;;;;2.90;2.70;;;28.00;36.00;;;;;;4989196;28;20492;-72
2022/08/15 06:55:52;;;;;;;4.00;3.03;;;28.00;36.00;;;;;;4989162;28;20449;-71
2022/08/15 06:58:33;;;;;;;3.10;2.80;;;28.00;36.20;;;;;;4976101;28;20477;-70
2022/08/15 07:01:37;;;;;;;3.90;3.30;;;28.00;36.20;;;;;;4989373;28;20549;-72
2022/08/15 07:04:38;;;;;;;3.42;3.13;;;28.00;36.40;;;;;;4982342;28;20522;-72
2022/08/15 07:10:07;;;;;;;3.70;3.30;;;28.00;36.20;;;;;;5015223;28;20476;-72
2022/08/15 07:12:50;;;;;;;4.23;2.93;;;28.00;36.40;;;;;;5000188;28;21021;-72
2022/08/15 07:15:29;;;;;;;3.20;2.90;;;27.90;36.50;;;;;;4992233;28;20477;-72
2022/08/15 07:18:07;;;;;;;2.97;2.77;;;27.90;36.60;;;;;;4990329;28;20486;-72
2022/08/15 07:20:37;;;;;;;3.73;2.87;;;27.90;36.60;;;;;;4954488;28;20621;-72
2022/08/15 07:23:17;;;;;;;2.50;2.30;;;27.90;36.60;;;;;;4978053;28;20488;-72
2022/08/15 07:25:47;;;;;;;3.03;2.83;;;27.90;36.90;;;;;;4989128;28;20968;-72
2022/08/15 07:28:21;;;;;;;4.40;2.87;;;27.90;37.00;;;;;;4989455;28;20512;-72
2022/08/15 07:31:06;;;;;;;4.10;3.00;;;27.90;37.20;;;;;;4987470;28;20871;-72
2022/08/15 07:33:47;;;;;;;4.50;3.17;;;27.90;37.20;;;;;;4970126;28;20441;-72
2022/08/15 07:36:27;;;;;;;5.10;3.40;;;27.90;37.40;;;;;;4985054;28;20612;-72
2022/08/15 07:39:21;;;;;;;4.30;3.90;;;27.90;37.50;;;;;;4988956;28;20626;-72
2022/08/15 07:42:15;;;;;;;5.20;3.37;;;27.90;37.50;;;;;;4979843;28;20479;-71
2022/08/15 07:45:17;;;;;;;3.07;2.87;;;27.90;37.80;;;;;;4974053;28;20523;-72
2022/08/15 07:47:57;;;;;;;4.03;3.20;;;27.90;37.80;;;;;;4998962;28;20475;-71
2022/08/15 07:50:37;;;;;;;3.70;2.60;;;27.90;37.90;;;;;;4968847;28;20469;-72
2022/08/15 07:53:17;;;;;;;3.70;2.57;;;27.90;37.80;;;;;;4973249;28;20979;-72
2022/08/15 07:56:06;;;;;;;4.80;3.67;;;27.80;37.90;;;;;;4972061;28;20573;-71
2022/08/15 07:59:09;;;;;;;2.97;2.67;;;27.80;37.90;;;;;;4987410;28;20461;-71
2022/08/15 08:01:38;;;;;;;3.90;2.80;;;27.80;38.00;;;;;;5004742;28;20556;-71
2022/08/15 08:04:12;;;;;;;4.23;2.67;;;27.80;38.00;;;;;;4985548;28;20468;-71
2022/08/15 08:07:03;;;;;;;3.50;3.20;;;27.80;38.10;;;;;;4987140;28;20480;-71
2022/08/15 08:09:43;;;;;;;4.10;2.70;;;27.80;38.10;;;;;;4971844;28;20460;-71
2022/08/15 08:12:25;;;;;;;3.27;2.97;;;27.80;38.10;;;;;;4978962;28;20830;-71
2022/08/15 08:15:17;;;;;;;4.17;3.20;;;27.80;38.10;;;;;;4971152;28;20948;-71
2022/08/15 08:18:12;;;;;;;2.80;2.60;;;27.80;38.00;;;;;;4971163;28;20825;-71
2022/08/15 08:20:59;;;;;;;4.80;3.10;;;27.80;38.10;;;;;;4980146;28;20469;-71
2022/08/15 08:23:39;;;;;;;5.23;3.60;;;27.80;38.10;;;;;;4975171;28;21027;-71
2022/08/15 08:26:21;;;;;;;3.70;2.97;;;27.80;38.10;;;;;;4987587;28;21002;-71
2022/08/15 08:29:01;;;;;;;3.07;2.87;;;27.80;38.00;;;;;;4964656;28;20566;-71
2022/08/15 08:31:37;;;;;;;2.53;2.33;;;27.80;38.20;;;;;;4986584;28;20469;-71
2022/08/15 08:34:18;;;;;;;3.83;3.17;;;27.80;38.00;;;;;;4983562;28;20456;-71
2022/08/15 08:37:13;;;;;;;3.20;2.97;;;27.80;38.20;;;;;;4971050;28;20866;-71
2022/08/15 08:39:49;;;;;;;3.30;3.00;;;27.80;38.30;;;;;;4975007;28;20441;-71
2022/08/15 08:42:31;;;;;;;3.43;3.03;;;27.80;38.20;;;;;;4986472;28;20548;-71
2022/08/15 08:45:16;;;;;;;4.03;3.60;;;27.80;38.40;;;;;;4976777;28;20880;-72
2022/08/15 08:48:13;;;;;;;3.77;3.47;;;27.80;38.60;;;;;;4975240;28;20838;-71
2022/08/15 08:50:57;;;;;;;3.13;2.83;;;27.80;38.30;;;;;;4974270;28;20508;-71
2022/08/15 08:53:33;;;;;;;3.30;3.00;;;27.80;38.50;;;;;;4993125;28;20469;-71
2022/08/15 08:56:14;;;;;;;3.60;3.30;;;27.80;38.50;;;;;;4990118;28;20440;-71
2022/08/15 08:59:09;;;;;;;3.50;3.20;;;27.80;38.50;;;;;;4986867;28;20450;-71
2022/08/15 09:01:40;;;;;;;3.30;3.00;;;27.80;38.60;;;;;;4970323;28;20478;-71
2022/08/15 09:04:14;;;;;;;4.73;3.27;;;27.80;38.60;;;;;;4968894;28;21016;-71
2022/08/15 09:06:49;;;;;;;3.03;2.83;;;27.80;38.60;;;;;;4987242;28;20441;-71
2022/08/15 09:09:29;;;;;;;4.10;2.83;;;27.80;38.60;;;;;;4979675;28;20442;-71
2022/08/15 09:12:03;;;;;;;4.20;2.93;;;27.80;38.70;;;;;;4969275;28;20516;-71
2022/08/15 09:14:41;;;;;;;4.53;4.10;;;27.70;38.90;;;;;;4982187;28;20492;-71
2022/08/15 09:17:33;;;;;;;3.93;3.53;;;27.70;38.90;;;;;;4979377;28;20895;-71
2022/08/15 09:20:10;;;;;;;3.93;3.53;;;27.70;39.00;;;;;;4970822;28;20458;-71
2022/08/15 09:22:50;;;;;;;3.67;3.37;;;27.80;39.20;;;;;;4987364;28;20461;-71
2022/08/15 09:25:23;;;;;;;3.10;2.83;;;27.80;39.10;;;;;;4994792;28;20805;-71
2022/08/15 09:28:09;;;;;;;3.97;3.67;;;27.80;38.90;;;;;;4994725;28;20568;-71
2022/08/15 09:31:03;;;;;;;4.43;3.33;;;27.80;38.90;;;;;;4974471;28;20982;-71
2022/08/15 09:34:06;;;;;;;3.83;3.53;;;27.80;38.80;;;;;;4980721;28;20432;-71
2022/08/15 09:37:05;;;;;;;3.60;2.90;;;27.80;38.60;;;;;;4972884;28;20460;-71
2022/08/15 09:40:05;;;;;;;3.30;3.00;;;27.80;38.60;;;;;;4990116;28;20457;-71
2022/08/15 09:43:15;;;;;;;3.23;2.73;;;27.80;38.60;;;;;;4975446;28;20990;-71
2022/08/15 09:46:05;;;;;;;3.80;3.50;;;27.80;38.50;;;;;;4973763;28;20477;-71
2022/08/15 09:49:29;;;;;;;3.63;3.33;;;27.70;38.40;;;;;;4977565;28;20769;-71
2022/08/15 09:52:30;;;;;;;3.47;3.17;;;27.70;38.40;;;;;;4984063;28;20539;-71
2022/08/15 09:55:28;;;;;;;3.33;3.03;;;27.70;38.40;;;;;;4971473;28;20789;-71
2022/08/15 09:58:23;;;;;;;3.90;3.60;;;27.70;38.40;;;;;;4985863;28;20472;-71
2022/08/15 10:01:03;;;;;;;4.70;3.50;;;27.70;38.40;;;;;;4990431;28;20497;-71
2022/08/15 10:03:59;;;;;;;3.90;3.10;;;27.70;38.40;;;;;;4979883;28;20836;-71
2022/08/15 10:06:31;;;;;;;3.07;2.87;;;27.70;38.50;;;;;;4968632;28;20902;-71
2022/08/15 10:09:17;;;;;;;3.47;3.27;;;27.70;38.50;;;;;;4973926;28;20446;-71
2022/08/15 10:12:24;;;;;;;3.53;3.27;;;27.70;38.60;;;;;;4973864;28;20952;-71
2022/08/15 10:15:03;;;;;;;3.10;2.80;;;27.70;38.60;;;;;;4965703;28;20457;-71
2022/08/15 10:17:44;;;;;;;3.97;2.93;;;27.70;38.60;;;;;;4993357;28;20474;-71
2022/08/15 10:21:02;;;;;;;4.13;3.70;;;27.70;38.60;;;;;;4964645;28;20504;-71
2022/08/15 10:23:42;;;;;;;3.60;3.40;;;27.60;38.50;;;;;;4983931;28;20520;-71
2022/08/15 10:26:26;;;;;;;3.53;3.23;;;27.60;38.40;;;;;;4990801;28;20507;-71
2022/08/15 10:29:10;;;;;;;3.30;3.10;;;27.60;38.50;;;;;;4971098;28;20949;-71
2022/08/15 10:31:52;;;;;;;3.40;3.07;;;27.60;38.50;;;;;;4989064;28;20500;-71
2022/08/15 10:34:56;;;;;;;3.50;3.07;;;27.60;38.60;;;;;;4972153;28;20437;-71
2022/08/15 10:37:30;;;;;;;3.50;2.70;;;27.60;38.90;;;;;;4986203;28;20524;-71
2022/08/15 10:40:28;;;;;;;3.33;3.03;;;27.60;39.10;;;;;;4976759;28;20434;-71
2022/08/15 10:43:29;;;;;;;4.03;3.57;;;27.60;39.80;;;;;;4986695;28;20900;-69
2022/08/15 10:46:25;;;;;;;4.47;3.50;;;27.60;40.60;;;;;;4982727;28;20881;-69
2022/08/15 10:49:10;;;;;;;3.63;3.20;;;27.60;40.10;;;;;;4977302;28;20453;-69
2022/08/15 10:52:11;;;;;;;3.67;3.37;;;27.60;41.00;;;;;;4969578;28;20469;-69
2022/08/15 10:55:13;;;;;;;4.20;3.70;;;27.60;41.10;;;;;;4970792;28;20532;-69
2022/08/15 10:57:48;;;;;;;5.63;3.10;;;27.60;41.20;;;;;;4986916;28;20845;-69
2022/08/15 11:00:37;;;;;;;3.80;3.03;;;27.60;41.20;;;;;;4991542;28;20449;-69
2022/08/15 11:03:24;;;;;;;4.13;3.77;;;27.60;42.10;;;;;;4994695;28;20488;-69
2022/08/15 11:06:17;;;;;;;4.03;3.17;;;27.60;41.80;;;;;;4965765;28;20862;-71
2022/08/15 11:09:05;;;;;;;4.07;3.67;;;27.60;42.30;;;;;;4973627;28;20445;-71
2022/08/15 11:11:42;;;;;;;3.90;3.60;;;27.50;42.70;;;;;;4988526;28;20477;-71
2022/08/15 11:14:20;;;;;;;3.63;3.23;;;27.50;43.00;;;;;;4985055;28;20444;-72
2022/08/15 11:17:00;;;;;;;5.70;4.50;;;27.50;43.00;;;;;;4989504;28;20488;-72
2022/08/15 11:19:37;;;;;;;4.27;3.97;;;27.50;43.20;;;;;;4967091;28;20466;-71
2022/08/15 11:22:33;;;;;;;3.70;3.40;;;27.50;43.80;;;;;;4987786;28;20668;-72
2022/08/15 11:25:07;;;;;;;4.87;3.20;;;27.50;44.30;;;;;;4972489;28;20438;-72
2022/08/15 11:27:37;;;;;;;5.13;3.50;;;27.50;44.30;;;;;;4969965;28;20520;-72
2022/08/15 11:30:08;;;;;;;4.03;3.73;;;27.50;44.30;;;;;;4973050;28;20430;-71
2022/08/15 11:32:52;;;;;;;3.63;3.33;;;27.50;44.50;;;;;;4975319;28;21182;-71
2022/08/15 11:35:27;;;;;;;4.67;3.73;;;27.50;44.40;;;;;;4985830;28;20458;-71
2022/08/15 11:38:00;;;;;;;5.20;3.13;;;27.50;44.50;;;;;;4974945;28;20552;-69
2022/08/15 11:40:53;;;;;;;4.50;3.60;;;27.50;44.50;;;;;;4975181;28;20446;-69
2022/08/15 11:43:25;;;;;;;4.30;4.00;;;27.50;44.70;;;;;;4969972;28;20477;-69
2022/08/15 11:45:56;;;;;;;3.70;3.40;;;27.50;44.80;;;;;;4996611;28;20465;-69
2022/08/15 11:48:28;;;;;;;4.20;3.90;;;27.50;45.10;;;;;;4987641;28;20450;-69
2022/08/15 11:51:10;;;;;;;3.23;2.93;;;27.50;45.10;;;;;;4981708;28;20456;-70
2022/08/15 11:54:05;;;;;;;4.10;3.70;;;27.50;45.40;;;;;;5001180;28;20529;-69
2022/08/15 11:56:50;;;;;;;4.50;4.10;;;27.60;45.40;;;;;;4984785;28;20468;-69
2022/08/15 11:59:26;;;;;;;4.10;3.60;;;27.60;45.70;;;;;;4981814;28;20453;-69
2022/08/15 12:02:29;;;;;;;4.70;4.30;;;27.60;45.30;;;;;;4970224;28;20564;-69
2022/08/15 12:05:13;;;;;;;4.80;4.30;;;27.60;45.40;;;;;;4967811;28;20821;-67
2022/08/15 12:08:06;;;;;;;4.20;3.80;;;27.60;45.30;;;;;;4992453;28;21063;-72
2022/08/15 12:11:06;;;;;;;5.33;4.50;;;27.60;45.30;;;;;;4970687;28;20528;-71
2022/08/15 12:13:37;;;;;;;4.07;3.77;;;27.60;45.60;;;;;;4972830;28;20478;-72
2022/08/15 12:16:25;;;;;;;6.83;4.37;;;27.60;45.20;;;;;;4989421;28;20953;-71
2022/08/15 12:19:00;;;;;;;5.47;4.40;;;27.60;46.30;;;;;;4969707;28;20440;-69
2022/08/15 12:21:47;;;;;;;4.53;3.80;;;27.50;46.00;;;;;;4986990;28;20486;-69
2022/08/15 12:24:37;;;;;;;4.10;3.70;;;27.50;45.60;;;;;;4978072;28;20447;-69
2022/08/15 12:27:17;;;;;;;4.63;3.60;;;27.50;45.40;;;;;;4983964;28;20464;-69
2022/08/15 12:29:50;;;;;;;5.27;4.27;;;27.50;45.10;;;;;;4995312;28;20472;-69
2022/08/15 12:32:20;;;;;;;4.60;4.20;;;27.50;45.00;;;;;;4971112;28;20851;-69
2022/08/15 12:35:06;;;;;;;4.77;4.23;;;27.50;44.80;;;;;;4969268;28;20441;-71
2022/08/15 12:37:55;;;;;;;5.60;4.55;;;27.60;44.70;;;;;;4954920;28;20445;-72
2022/08/15 12:40:27;;;;;;;3.77;3.47;;;27.50;44.80;;;;;;4972141;28;20213;-71
2022/08/15 12:43:18;;;;;;;4.00;3.80;;;27.50;44.60;;;;;;4978907;28;20473;-71
2022/08/15 12:45:51;;;;;;;3.77;3.47;;;27.50;44.50;;;;;;5001424;28;20479;-71
2022/08/15 12:48:25;;;;;;;4.90;4.50;;;27.50;44.20;;;;;;4971279;28;20477;-71
2022/08/15 12:51:04;;;;;;;4.17;3.70;;;27.50;44.10;;;;;;4984331;28;20544;-71
2022/08/15 12:53:38;;;;;;;4.47;3.70;;;27.50;43.80;;;;;;4970855;28;20516;-72
2022/08/15 12:56:08;;;;;;;3.80;3.50;;;27.60;43.90;;;;;;4971313;28;20437;-61
2022/08/15 12:58:59;;;;;;;7.60;4.10;;;27.60;43.70;;;;;;4972427;28;20442;-60
2022/08/15 13:01:32;;;;;;;4.23;3.50;;;27.50;43.60;;;;;;4991618;28;21000;-61
2022/08/15 13:04:21;;;;;;;3.80;3.50;;;27.50;43.50;;;;;;4966467;28;20801;-61
2022/08/15 13:07:13;;;;;;;6.80;3.93;;;27.60;43.50;;;;;;4984846;28;20497;-60
2022/08/15 13:09:43;;;;;;;3.67;3.37;;;27.60;43.40;;;;;;4976134;28;20469;-60
2022/08/15 13:12:13;;;;;;;4.63;3.63;;;27.60;43.20;;;;;;4987916;28;20473;-60
2022/08/15 13:14:49;;;;;;;3.50;3.20;;;27.60;43.10;;;;;;4983113;28;20518;-61
2022/08/15 13:17:20;;;;;;;4.27;3.60;;;27.60;42.90;;;;;;4995854;28;20468;-71
2022/08/15 13:25:43;;;;;;;4.27;3.97;;;27.60;42.10;;;;;;4998524;28;20437;-68
2022/08/15 13:28:15;;;;;;;3.50;3.30;;;27.60;41.10;;;;;;4988725;28;20479;-68
2022/08/15 13:30:45;;;;;;;5.13;2.87;;;27.60;41.50;;;;;;4994100;28;20471;-68
2022/08/15 13:33:35;;;;;;;3.53;3.23;;;27.60;41.30;;;;;;4986691;28;20473;-67
2022/08/15 13:36:13;;;;;;;3.60;3.30;;;27.60;41.20;;;;;;4987026;28;20433;-68
2022/08/15 13:39:04;;;;;;;3.73;3.43;;;27.60;41.10;;;;;;4973304;28;20441;-68
2022/08/15 13:41:41;;;;;;;3.23;3.03;;;27.60;41.20;;;;;;4979609;28;20478;-68
2022/08/15 13:44:19;;;;;;;3.67;3.37;;;27.60;41.10;;;;;;4971479;28;20433;-68
2022/08/15 13:47:01;;;;;;;3.40;3.10;;;27.60;41.20;;;;;;4993983;28;20450;-67
2022/08/15 13:49:41;;;;;;;3.30;3.00;;;27.60;41.10;;;;;;4975050;28;20528;-68
2022/08/15 13:52:10;;;;;;;3.63;3.33;;;27.60;41.20;;;;;;4965420;28;20472;-67
2022/08/15 13:54:58;;;;;;;4.17;3.40;;;27.60;40.60;;;;;;4973587;28;20983;-68
2022/08/15 13:57:40;;;;;;;3.37;3.10;;;27.60;41.20;;;;;;4972994;28;20475;-68
2022/08/15 14:00:11;;;;;;;3.17;2.93;;;27.60;41.20;;;;;;4991306;28;21172;-68
2022/08/15 14:03:01;;;;;;;3.13;2.80;;;27.60;41.10;;;;;;4972501;28;20453;-68
2022/08/15 14:05:36;;;;;;;3.67;2.63;;;27.60;41.00;;;;;;4977165;28;20449;-68
2022/08/15 14:08:11;;;;;;;3.27;2.97;;;27.60;41.00;;;;;;4965586;28;20472;-69
2022/08/15 14:11:00;;;;;;;3.60;3.30;;;27.60;41.00;;;;;;4989705;28;20483;-71